Portada
METAR-TAF:

METAR-TAF

Aeropuertos :

Aeropuerto Internacional de Maiquetía Simón Bolívar

Caracas, Venezuela

latitud: 10-36N, longitud: 066-59W, altitud: 43 m

Observación

El informe se hizo hace 3 horas y 5 minutos, a las 16:00 UTC
Viento 5 kt del norte
Temperatura 30°C
Humedad 75%
Presión 1009 hPa
Visibilidad 10 km o más
Cielo nuboso a una altura de 1600 ft

METAR: SVMI 181600Z 36005KT 9999 BKN016 30/25 Q1009

Hora: 15:05 (19:05 UTC)

Pronóstico

El informe se hizo hace 3 horas y 5 minutos, a las 16:00 UTC
Pronóstico válido del 18 a las 18 UTC al 19 a las 18 UTC
Viento 3 kt del noreste
Visibilidad 10 km o más
Nubes dispersas a una altura de 1600 ft
Evolucionando progresivamente
del 18 a las 18 UTC al 18 a las 22 UTC
Viento 9 kt del este
Visibilidad: 9000 m
Cielo nuboso a una altura de 1600 ft
llovizna ligera

TAF: SVMI 181600Z 1818/1918 05003KT 9999 SCT016 TX32/18Z TN24/08Z BECMG 1818/1822 09009KT 9000 -DZ BKN016

Observaciones y pronósticos meteorológicos de más de 4000 aeropuertos (mensajes METAR y TAF).

Los puntos amarillos y rojos representan las estaciones disponibles.

Ponga el ratón en el punto deseado para ver el nombre de la estación.

Haga clic para ver las observaciones y los pronósticos meteorológicos.

Para cambiar el mapa : haga clic en los botones verdes con una cruz de color negro para hacer un zoom, en el botón verde con un guión para alejar o en las flechas verdes para mapas adyacentes.


METAR-TAF: